createdAt,value
2022-12-01T00:01:21.320Z,100542.03
2022-12-01T00:03:49.662Z,100546.44
2022-12-01T00:06:19.260Z,100548.69
2022-12-01T00:09:07.446Z,100555.25
2022-12-01T00:11:36.370Z,100552.28
2022-12-01T00:14:04.351Z,100550.03
2022-12-01T00:16:32.761Z,100552.91
2022-12-01T00:19:00.510Z,100544.56
2022-12-01T00:21:28.276Z,100554.25
2022-12-01T00:23:57.501Z,100553.06
2022-12-01T00:26:27.359Z,100551.75
2022-12-01T00:28:57.338Z,100548.22
2022-12-01T00:31:25.472Z,100562.19
2022-12-01T00:33:53.805Z,100562.03
2022-12-01T00:36:21.790Z,100563.84
2022-12-01T00:38:53.106Z,100563.09
2022-12-01T00:41:21.305Z,100558.75
2022-12-01T00:43:50.867Z,100566.72
2022-12-01T00:46:18.964Z,100561.72
2022-12-01T00:48:46.937Z,100564.38
2022-12-01T00:51:14.320Z,100564.44
2022-12-01T00:53:41.733Z,100570.88
2022-12-01T00:56:09.447Z,100567.66
2022-12-01T00:58:37.048Z,100572.25
2022-12-01T01:01:04.817Z,100571.12
2022-12-01T01:03:32.881Z,100577.84
2022-12-01T01:06:05.777Z,100579.69
2022-12-01T01:08:33.603Z,100582.28
2022-12-01T01:11:01.522Z,100574.03
2022-12-01T01:13:29.703Z,100575.69
2022-12-01T01:16:02.415Z,100575.22
2022-12-01T01:18:30.292Z,100569.53
2022-12-01T01:21:03.848Z,100567.34
2022-12-01T01:23:31.559Z,100566.44
2022-12-01T01:26:05.236Z,100569.28
2022-12-01T01:28:33.109Z,100571.03
2022-12-01T01:31:06.460Z,100566.41
2022-12-01T01:33:33.991Z,100557.34
2022-12-01T01:36:02.598Z,100555.00
2022-12-01T01:38:31.012Z,100564.16
2022-12-01T01:40:58.489Z,100562.47
2022-12-01T01:43:51.760Z,100558.47
2022-12-01T01:46:30.456Z,100559.75
2022-12-01T01:49:04.494Z,100559.50
2022-12-01T01:51:50.825Z,100566.53
2022-12-01T01:54:25.707Z,100569.34
2022-12-01T01:56:54.704Z,100568.09
2022-12-01T01:59:30.210Z,100568.13
2022-12-01T02:02:03.627Z,100569.69
2022-12-01T02:04:33.082Z,100569.84
2022-12-01T02:07:00.774Z,100567.44
2022-12-01T02:09:29.840Z,100567.19
2022-12-01T02:12:07.463Z,100565.59
2022-12-01T02:14:47.136Z,100567.69
2022-12-01T02:17:18.020Z,100567.84
2022-12-01T02:20:13.378Z,100567.00
2022-12-01T02:23:05.963Z,100562.63
2022-12-01T02:26:04.808Z,100562.69
2022-12-01T02:29:01.953Z,100570.00
2022-12-01T02:31:48.554Z,100562.84
2022-12-01T02:34:30.321Z,100576.16
2022-12-01T02:37:05.134Z,100565.06
2022-12-01T02:39:37.423Z,100562.44
2022-12-01T02:42:34.669Z,100572.09
2022-12-01T02:45:06.270Z,100555.66
2022-12-01T02:47:34.529Z,100564.41
2022-12-01T02:50:03.206Z,100558.59
2022-12-01T02:52:30.765Z,100560.31
2022-12-01T02:54:58.505Z,100562.94
2022-12-01T02:57:26.283Z,100555.06
2022-12-01T02:59:55.777Z,100559.44
2022-12-01T03:02:42.573Z,100563.94
2022-12-01T03:05:17.022Z,100562.94
2022-12-01T03:08:07.033Z,100559.41
2022-12-01T03:10:45.640Z,100559.37
2022-12-01T03:13:40.235Z,100556.84
2022-12-01T03:16:14.113Z,100561.47
2022-12-01T03:18:46.638Z,100558.69
2022-12-01T03:21:33.976Z,100561.28
2022-12-01T03:24:05.341Z,100557.75
2022-12-01T03:26:34.508Z,100553.31
2022-12-01T03:29:15.297Z,100552.50
2022-12-01T03:31:46.281Z,100549.63
2022-12-01T03:34:38.801Z,100547.94
2022-12-01T03:37:15.175Z,100544.38
2022-12-01T03:39:42.962Z,100540.81
2022-12-01T03:42:19.761Z,100536.53
2022-12-01T03:44:54.114Z,100536.25
2022-12-01T03:47:32.425Z,100527.50
2022-12-01T03:50:00.400Z,100527.31
2022-12-01T03:52:28.426Z,100537.25
2022-12-01T03:55:32.072Z,100531.63
2022-12-01T03:58:07.057Z,100522.06
2022-12-01T04:00:34.642Z,100519.56
2022-12-01T04:03:04.308Z,100522.25
2022-12-01T04:05:34.302Z,100518.84
2022-12-01T04:08:02.510Z,100513.59
2022-12-01T04:10:30.282Z,100509.88
2022-12-01T04:12:59.767Z,100510.31
2022-12-01T04:15:28.109Z,100495.97
2022-12-01T04:17:55.635Z,100501.50
2022-12-01T04:20:23.152Z,100499.75
2022-12-01T04:22:50.912Z,100503.16
2022-12-01T04:25:18.497Z,100513.03
2022-12-01T04:27:45.943Z,100513.88
2022-12-01T04:30:14.081Z,100528.00
2022-12-01T04:32:42.834Z,100545.31
2022-12-01T04:35:11.826Z,100546.19
2022-12-01T04:37:40.244Z,100541.47
2022-12-01T04:40:08.673Z,100547.75
2022-12-01T04:42:36.264Z,100540.81
2022-12-01T04:45:04.282Z,100530.28
2022-12-01T04:47:32.005Z,100533.53
2022-12-01T04:50:00.530Z,100533.59
2022-12-01T04:52:32.143Z,100538.03
2022-12-01T04:55:03.524Z,100544.25
2022-12-01T04:57:31.179Z,100552.75
2022-12-01T04:59:58.745Z,100559.50
2022-12-01T05:02:26.485Z,100555.28
2022-12-01T05:04:54.249Z,100562.19
2022-12-01T05:07:21.862Z,100561.47
2022-12-01T05:09:49.576Z,100558.66
2022-12-01T05:12:17.546Z,100552.56
2022-12-01T05:14:46.101Z,100563.22
2022-12-01T05:17:13.662Z,100559.56
2022-12-01T05:20:00.123Z,100548.22
2022-12-01T05:23:03.290Z,100546.41
2022-12-01T05:25:15.574Z,100551.03
2022-12-01T05:27:42.987Z,100553.47
2022-12-01T05:30:11.016Z,100550.06
2022-12-01T05:32:38.946Z,100551.75
2022-12-01T05:35:07.155Z,100544.84
2022-12-01T05:37:34.783Z,100553.50
2022-12-01T05:40:02.654Z,100555.50
2022-12-01T05:42:30.306Z,100556.53
2022-12-01T05:44:57.855Z,100553.75
2022-12-01T05:47:25.638Z,100552.34
2022-12-01T05:49:53.052Z,100555.59
2022-12-01T05:52:20.571Z,100560.75
2022-12-01T05:54:48.528Z,100564.22
2022-12-01T05:57:16.047Z,100566.06
2022-12-01T05:59:43.619Z,100560.75
2022-12-01T06:02:11.516Z,100569.50
2022-12-01T06:04:39.333Z,100571.00
2022-12-01T06:07:06.996Z,100572.75
2022-12-01T06:09:34.505Z,100571.00
2022-12-01T06:12:02.360Z,100580.34
2022-12-01T06:14:29.980Z,100589.75
2022-12-01T06:16:57.537Z,100579.97
2022-12-01T06:19:25.393Z,100586.06
2022-12-01T06:21:53.119Z,100588.97
2022-12-01T06:24:20.765Z,100596.06
2022-12-01T06:26:48.530Z,100595.34
2022-12-01T06:29:16.090Z,100596.31
2022-12-01T06:31:43.725Z,100594.50
2022-12-01T06:34:12.077Z,100593.66
2022-12-01T06:36:39.494Z,100588.47
2022-12-01T06:39:11.072Z,100581.38
2022-12-01T06:41:39.231Z,100585.84
2022-12-01T06:44:06.663Z,100582.31
2022-12-01T06:46:34.460Z,100588.38
2022-12-01T06:49:02.264Z,100584.09
2022-12-01T06:51:30.495Z,100592.84
2022-12-01T06:54:03.760Z,100583.25
2022-12-01T06:56:33.018Z,100585.87
2022-12-01T06:59:01.156Z,100591.97
2022-12-01T07:01:28.884Z,100597.28
2022-12-01T07:03:56.821Z,100598.12
2022-12-01T07:06:24.398Z,100600.78
2022-12-01T07:08:53.003Z,100601.62
2022-12-01T07:11:21.265Z,100598.09
2022-12-01T07:13:50.349Z,100602.53
2022-12-01T07:16:18.034Z,100599.87
2022-12-01T07:18:46.101Z,100607.69
2022-12-01T07:21:15.040Z,100603.91
2022-12-01T07:23:42.803Z,100599.75
2022-12-01T07:26:12.843Z,100604.06
2022-12-01T07:28:40.732Z,100603.31
2022-12-01T07:31:10.654Z,100597.00
2022-12-01T07:33:40.728Z,100599.66
2022-12-01T07:36:08.883Z,100597.47
2022-12-01T07:38:37.477Z,100596.00
2022-12-01T07:41:19.113Z,100594.56
2022-12-01T07:43:48.347Z,100603.22
2022-12-01T07:46:22.801Z,100604.09
2022-12-01T07:48:52.240Z,100608.44
2022-12-01T07:51:21.099Z,100603.03
2022-12-01T07:53:49.602Z,100603.00
2022-12-01T07:56:17.982Z,100598.53
2022-12-01T07:58:46.084Z,100605.59
2022-12-01T08:01:20.539Z,100611.53
2022-12-01T08:03:50.184Z,100617.41
2022-12-01T08:06:18.888Z,100613.00
2022-12-01T08:08:46.781Z,100606.69
2022-12-01T08:11:17.724Z,100607.59
2022-12-01T08:13:45.176Z,100607.50
2022-12-01T08:16:15.510Z,100609.06
2022-12-01T08:18:43.885Z,100603.25
2022-12-01T08:21:13.529Z,100596.81
2022-12-01T08:23:42.227Z,100603.69
2022-12-01T08:26:15.738Z,100592.19
2022-12-01T08:28:43.762Z,100588.94
2022-12-01T08:31:13.012Z,100599.44
2022-12-01T08:33:40.806Z,100590.53
2022-12-01T08:36:08.642Z,100600.09
2022-12-01T08:38:36.572Z,100593.88
2022-12-01T08:41:06.433Z,100602.91
2022-12-01T08:43:56.701Z,100604.47
2022-12-01T08:46:22.081Z,100612.16
2022-12-01T08:48:49.601Z,100600.97
2022-12-01T08:51:19.075Z,100597.09
2022-12-01T08:53:49.735Z,100593.31
2022-12-01T08:56:30.952Z,100601.88
2022-12-01T08:58:58.740Z,100599.25
2022-12-01T09:01:26.639Z,100596.37
2022-12-01T09:04:08.781Z,100602.44
2022-12-01T09:06:41.932Z,100602.28
2022-12-01T09:09:11.925Z,100604.47
2022-12-01T09:11:40.442Z,100603.59
2022-12-01T09:14:07.951Z,100592.38
2022-12-01T09:16:35.819Z,100596.22
2022-12-01T09:19:04.355Z,100593.59
2022-12-01T09:21:33.964Z,100585.97
2022-12-01T09:24:02.961Z,100580.47
2022-12-01T09:26:30.945Z,100583.47
2022-12-01T09:29:01.293Z,100585.25
2022-12-01T09:31:29.956Z,100578.75
2022-12-01T09:34:00.291Z,100584.09
2022-12-01T09:36:29.841Z,100580.03
2022-12-01T09:38:57.627Z,100580.19
2022-12-01T09:41:33.443Z,100576.78
2022-12-01T09:44:39.492Z,100575.72
2022-12-01T09:47:30.112Z,100575.78
2022-12-01T09:50:09.957Z,100566.09
2022-12-01T09:52:43.790Z,100559.25
2022-12-01T09:55:16.899Z,100561.91
2022-12-01T09:57:48.295Z,100567.25
2022-12-01T10:00:18.833Z,100562.25
2022-12-01T10:02:54.301Z,100562.94
2022-12-01T10:09:13.865Z,100559.75
2022-12-01T10:11:42.787Z,100559.88
2022-12-01T10:14:20.136Z,100561.59
2022-12-01T10:16:54.047Z,100555.19
2022-12-01T10:19:33.009Z,100554.72
2022-12-01T10:22:17.075Z,100548.22
2022-12-01T10:24:55.396Z,100542.56
2022-12-01T10:27:29.410Z,100547.50
2022-12-01T10:30:06.550Z,100538.47
2022-12-01T10:32:57.462Z,100533.47
2022-12-01T10:35:29.331Z,100534.41
2022-12-01T10:37:59.521Z,100527.06
2022-12-01T10:40:28.256Z,100522.31
2022-12-01T10:42:55.867Z,100521.19
2022-12-01T10:45:26.061Z,100523.34
2022-12-01T10:48:15.570Z,100513.56
2022-12-01T10:50:49.277Z,100516.88
2022-12-01T10:53:23.101Z,100518.16
2022-12-01T10:55:59.749Z,100524.03
2022-12-01T10:58:27.724Z,100528.19
2022-12-01T11:01:02.625Z,100537.75
2022-12-01T11:03:33.079Z,100534.09
2022-12-01T11:06:02.139Z,100528.94
2022-12-01T11:08:53.473Z,100522.03
2022-12-01T11:11:36.285Z,100517.94
2022-12-01T11:14:25.965Z,100511.25
2022-12-01T11:16:54.462Z,100499.09
2022-12-01T11:19:34.946Z,100495.75
2022-12-01T11:22:19.298Z,100489.88
2022-12-01T11:24:53.238Z,100486.66
2022-12-01T11:27:23.594Z,100497.00
2022-12-01T11:30:04.837Z,100492.03
2022-12-01T11:32:38.048Z,100492.69
2022-12-01T11:35:20.753Z,100488.34
2022-12-01T11:38:27.307Z,100490.31
2022-12-01T11:40:49.011Z,100487.56
2022-12-01T11:43:35.353Z,100493.19
2022-12-01T11:46:06.598Z,100475.53
2022-12-01T11:48:36.355Z,100477.87
2022-12-01T11:51:12.465Z,100485.66
2022-12-01T11:53:42.319Z,100481.63
2022-12-01T11:56:15.067Z,100475.72
2022-12-01T11:58:42.774Z,100487.09
2022-12-01T12:01:41.124Z,100477.72
2022-12-01T12:04:30.214Z,100480.47
2022-12-01T12:07:28.515Z,100487.72
2022-12-01T12:10:07.375Z,100479.84
2022-12-01T12:12:59.419Z,100481.03
2022-12-01T12:15:30.215Z,100468.91
2022-12-01T12:18:23.567Z,100476.50
2022-12-01T12:20:58.354Z,100473.53
2022-12-01T12:23:48.509Z,100468.44
2022-12-01T12:26:23.558Z,100471.25
2022-12-01T12:29:27.629Z,100469.09
2022-12-01T12:32:21.813Z,100476.59
2022-12-01T12:34:53.762Z,100463.91
2022-12-01T12:37:41.011Z,100457.63
2022-12-01T12:40:33.299Z,100464.69
2022-12-01T12:43:21.740Z,100463.91
2022-12-01T12:46:19.355Z,100459.19
2022-12-01T12:49:19.410Z,100469.97
2022-12-01T12:52:19.273Z,100462.91
2022-12-01T12:54:57.827Z,100462.12
2022-12-01T12:57:39.065Z,100452.12
2022-12-01T13:00:16.699Z,100463.63
2022-12-01T13:03:21.321Z,100464.84
2022-12-01T13:05:59.169Z,100460.84
2022-12-01T13:08:49.075Z,100455.88
2022-12-01T13:11:24.102Z,100461.41
2022-12-01T13:14:06.645Z,100456.31
2022-12-01T13:16:38.208Z,100455.53
2022-12-01T13:19:13.640Z,100456.47
2022-12-01T13:21:44.546Z,100464.78
2022-12-01T13:24:19.846Z,100454.75
2022-12-01T13:26:54.792Z,100465.19
2022-12-01T13:29:24.036Z,100464.50
2022-12-01T13:31:53.642Z,100460.87
2022-12-01T13:34:25.957Z,100460.31
2022-12-01T13:36:54.327Z,100465.50
2022-12-01T13:39:27.992Z,100455.94
2022-12-01T13:42:22.724Z,100459.44
2022-12-01T13:45:17.326Z,100458.06
2022-12-01T13:47:50.626Z,100461.41
2022-12-01T13:50:43.034Z,100462.78
2022-12-01T13:53:37.776Z,100465.41
2022-12-01T13:56:25.242Z,100464.22
2022-12-01T13:58:54.547Z,100451.25
2022-12-01T14:01:22.694Z,100452.88
2022-12-01T14:04:03.022Z,100455.88
2022-12-01T14:06:38.601Z,100459.34
2022-12-01T14:09:15.490Z,100458.34
2022-12-01T14:11:56.002Z,100456.06
2022-12-01T14:14:26.363Z,100441.78
2022-12-01T14:16:59.020Z,100444.66
2022-12-01T14:19:33.230Z,100448.47
2022-12-01T14:22:02.241Z,100437.31
2022-12-01T14:24:38.495Z,100451.03
2022-12-01T14:27:06.654Z,100452.16
2022-12-01T14:29:38.724Z,100450.78
2022-12-01T14:32:09.663Z,100451.75
2022-12-01T14:34:37.922Z,100447.78
2022-12-01T14:37:16.845Z,100449.31
2022-12-01T14:39:47.203Z,100445.50
2022-12-01T14:42:44.210Z,100448.47
2022-12-01T14:45:16.352Z,100448.44
2022-12-01T14:47:47.945Z,100454.69
2022-12-01T14:50:23.165Z,100457.59
2022-12-01T14:52:56.452Z,100463.87
2022-12-01T14:55:38.112Z,100459.75
2022-12-01T14:58:08.503Z,100453.66
2022-12-01T15:00:37.725Z,100456.56
2022-12-01T15:03:09.392Z,100456.66
2022-12-01T15:05:40.019Z,100457.00
2022-12-01T15:08:49.242Z,100464.41
2022-12-01T15:11:26.036Z,100465.09
2022-12-01T15:13:56.412Z,100459.94
2022-12-01T15:16:26.664Z,100458.44
2022-12-01T15:18:54.349Z,100463.72
2022-12-01T15:21:30.240Z,100454.91
2022-12-01T15:24:06.744Z,100462.03
2022-12-01T15:26:37.232Z,100453.34
2022-12-01T15:29:17.772Z,100457.06
2022-12-01T15:31:47.822Z,100459.84
2022-12-01T15:34:18.635Z,100463.47
2022-12-01T15:36:46.815Z,100455.56
2022-12-01T15:39:20.720Z,100459.47
2022-12-01T15:41:53.872Z,100456.84
2022-12-01T15:44:27.916Z,100464.88
2022-12-01T15:46:56.073Z,100466.16
2022-12-01T15:49:30.001Z,100466.94
2022-12-01T15:52:10.371Z,100465.34
2022-12-01T15:54:38.941Z,100467.09
2022-12-01T15:57:07.050Z,100474.91
2022-12-01T15:59:38.171Z,100461.16
2022-12-01T16:02:30.293Z,100471.41
2022-12-01T16:05:01.370Z,100470.94
2022-12-01T16:08:11.408Z,100470.03
2022-12-01T16:10:33.348Z,100471.47
2022-12-01T16:13:45.491Z,100476.72
2022-12-01T16:16:47.140Z,100474.84
2022-12-01T16:19:17.702Z,100472.31
2022-12-01T16:21:51.749Z,100475.91
2022-12-01T16:24:36.345Z,100475.19
2022-12-01T16:27:15.866Z,100474.31
2022-12-01T16:29:50.096Z,100466.63
2022-12-01T16:32:45.198Z,100470.44
2022-12-01T16:35:26.366Z,100470.84
2022-12-01T16:37:55.257Z,100470.56
2022-12-01T16:40:26.104Z,100476.12
2022-12-01T16:42:54.371Z,100478.03
2022-12-01T16:45:23.125Z,100477.34
2022-12-01T16:47:50.885Z,100473.88
2022-12-01T16:50:20.615Z,100474.81
2022-12-01T16:52:48.358Z,100478.63
2022-12-01T16:55:41.526Z,100472.69
2022-12-01T16:58:09.561Z,100483.69
2022-12-01T17:00:37.504Z,100480.09
2022-12-01T17:03:05.746Z,100474.84
2022-12-01T17:05:37.302Z,100480.16
2022-12-01T17:08:05.785Z,100485.50
2022-12-01T17:10:35.040Z,100487.22
2022-12-01T17:13:03.222Z,100483.09
2022-12-01T17:15:31.345Z,100489.41
2022-12-01T17:17:59.145Z,100489.31
2022-12-01T17:20:26.817Z,100488.31
2022-12-01T17:22:54.504Z,100492.81
2022-12-01T17:25:22.380Z,100489.34
2022-12-01T17:27:51.748Z,100492.25
2022-12-01T17:30:19.390Z,100500.09
2022-12-01T17:32:47.279Z,100500.09
2022-12-01T17:35:15.055Z,100497.66
2022-12-01T17:37:43.021Z,100496.59
2022-12-01T17:40:14.684Z,100508.19
2022-12-01T17:42:46.996Z,100503.78
2022-12-01T17:45:18.621Z,100500.44
2022-12-01T17:47:46.087Z,100497.75
2022-12-01T17:50:13.990Z,100504.81
2022-12-01T17:52:41.880Z,100509.31
2022-12-01T17:55:10.129Z,100511.97
2022-12-01T17:57:37.857Z,100501.37
2022-12-01T18:00:06.789Z,100505.97
2022-12-01T18:02:35.987Z,100510.38
2022-12-01T18:05:04.157Z,100509.59
2022-12-01T18:07:31.779Z,100509.81
2022-12-01T18:09:59.247Z,100509.84
2022-12-01T18:12:26.947Z,100513.38
2022-12-01T18:14:54.563Z,100509.91
2022-12-01T18:17:22.289Z,100519.56
2022-12-01T18:19:50.207Z,100511.72
2022-12-01T18:22:17.807Z,100509.22
2022-12-01T18:24:45.422Z,100510.44
2022-12-01T18:27:13.126Z,100506.91
2022-12-01T18:29:42.118Z,100507.00
2022-12-01T18:32:11.737Z,100514.00
2022-12-01T18:34:39.553Z,100514.94
2022-12-01T18:37:07.072Z,100507.97
2022-12-01T18:39:36.753Z,100512.25
2022-12-01T18:42:06.705Z,100514.00
2022-12-01T18:44:34.611Z,100513.09
2022-12-01T18:47:03.702Z,100512.34
2022-12-01T18:49:32.049Z,100511.37
2022-12-01T18:52:00.359Z,100517.72
2022-12-01T18:54:27.980Z,100522.22
2022-12-01T18:56:59.020Z,100517.97
2022-12-01T18:59:27.042Z,100510.06
2022-12-01T19:01:54.755Z,100510.78
2022-12-01T19:04:22.913Z,100522.38
2022-12-01T19:06:50.883Z,100511.22
2022-12-01T19:09:20.546Z,100513.16
2022-12-01T19:11:48.400Z,100517.31
2022-12-01T19:14:18.036Z,100518.09
2022-12-01T19:16:46.739Z,100520.84
2022-12-01T19:19:15.690Z,100519.94
2022-12-01T19:21:45.183Z,100517.31
2022-12-01T19:24:13.796Z,100526.84
2022-12-01T19:26:46.650Z,100519.94
2022-12-01T19:29:14.682Z,100524.25
2022-12-01T19:31:42.718Z,100523.47
2022-12-01T19:34:10.835Z,100520.94
2022-12-01T19:36:38.390Z,100525.16
2022-12-01T19:39:07.834Z,100525.19
2022-12-01T19:41:38.066Z,100523.44
2022-12-01T19:44:06.531Z,100526.19
2022-12-01T19:46:34.275Z,100527.12
2022-12-01T19:49:02.125Z,100525.37
2022-12-01T19:51:35.612Z,100528.00
2022-12-01T19:54:05.896Z,100536.03
2022-12-01T19:56:34.603Z,100536.09
2022-12-01T19:59:03.359Z,100530.03
2022-12-01T20:01:30.889Z,100537.91
2022-12-01T20:03:58.871Z,100534.47
2022-12-01T20:06:29.219Z,100531.87
2022-12-01T20:08:59.194Z,100530.97
2022-12-01T20:11:29.814Z,100537.88
2022-12-01T20:13:57.386Z,100540.53
2022-12-01T20:16:26.835Z,100532.72
2022-12-01T20:18:55.050Z,100535.16
2022-12-01T20:21:28.228Z,100532.47
2022-12-01T20:24:05.168Z,100534.28
2022-12-01T20:26:38.825Z,100535.28
2022-12-01T20:29:09.955Z,100537.88
2022-12-01T20:31:37.956Z,100532.81
2022-12-01T20:34:09.677Z,100537.09
2022-12-01T20:36:38.033Z,100535.59
2022-12-01T20:39:06.589Z,100533.75
2022-12-01T20:41:34.616Z,100538.03
2022-12-01T20:44:06.986Z,100539.81
2022-12-01T20:46:36.378Z,100541.78
2022-12-01T20:49:04.993Z,100546.97
2022-12-01T20:51:33.470Z,100550.50
2022-12-01T20:54:27.453Z,100552.19
2022-12-01T20:56:53.765Z,100548.87
2022-12-01T20:59:21.336Z,100555.97
2022-12-01T21:01:48.769Z,100558.53
2022-12-01T21:04:16.979Z,100562.97
2022-12-01T21:06:44.618Z,100566.56
2022-12-01T21:09:13.266Z,100568.22
2022-12-01T21:12:05.249Z,100574.41
2022-12-01T21:14:32.996Z,100570.94
2022-12-01T21:17:08.981Z,100567.44
2022-12-01T21:19:50.561Z,100566.63
2022-12-01T21:22:19.322Z,100575.38
2022-12-01T21:24:51.173Z,100571.75
2022-12-01T21:27:19.648Z,100573.59
2022-12-01T21:29:49.486Z,100573.66
2022-12-01T21:32:23.955Z,100568.34
2022-12-01T21:34:52.297Z,100570.19
2022-12-01T21:37:24.698Z,100577.09
2022-12-01T21:39:53.669Z,100577.34
2022-12-01T21:42:25.554Z,100576.31
2022-12-01T21:44:53.769Z,100570.25
2022-12-01T21:47:27.301Z,100577.31
2022-12-01T21:50:00.279Z,100579.81
2022-12-01T21:52:40.071Z,100578.22
2022-12-01T21:55:17.104Z,100575.59
2022-12-01T21:57:53.005Z,100575.53
2022-12-01T22:00:28.645Z,100575.50
2022-12-01T22:03:22.960Z,100583.38
2022-12-01T22:06:21.189Z,100574.69
2022-12-01T22:08:41.276Z,100577.22
2022-12-01T22:11:14.642Z,100583.28
2022-12-01T22:14:25.422Z,100579.94
2022-12-01T22:17:05.176Z,100585.13
2022-12-01T22:19:36.989Z,100578.28
2022-12-01T22:22:22.763Z,100580.88
2022-12-01T22:25:20.951Z,100576.47
2022-12-01T22:27:49.175Z,100568.78
2022-12-01T22:30:20.157Z,100575.59
2022-12-01T22:33:03.825Z,100565.25
2022-12-01T22:35:31.701Z,100566.16
2022-12-01T22:38:11.234Z,100567.06
2022-12-01T22:40:40.079Z,100563.47
2022-12-01T22:43:17.317Z,100563.31
2022-12-01T22:45:47.049Z,100566.88
2022-12-01T22:48:35.062Z,100562.53
2022-12-01T22:51:21.206Z,100565.16
2022-12-01T22:53:49.026Z,100556.31
2022-12-01T22:56:23.295Z,100555.59
2022-12-01T22:58:51.121Z,100552.94
2022-12-01T23:01:27.339Z,100551.16
2022-12-01T23:04:08.244Z,100554.69
2022-12-01T23:07:28.634Z,100546.84
2022-12-01T23:10:16.552Z,100551.94
2022-12-01T23:12:45.976Z,100550.94
2022-12-01T23:15:27.744Z,100546.78
2022-12-01T23:17:55.700Z,100551.91
2022-12-01T23:20:28.220Z,100555.34
2022-12-01T23:22:57.613Z,100551.00
2022-12-01T23:25:27.388Z,100548.38
2022-12-01T23:27:59.033Z,100549.25
2022-12-01T23:30:27.576Z,100558.87
2022-12-01T23:33:22.431Z,100554.56
2022-12-01T23:35:59.897Z,100557.16
2022-12-01T23:38:38.230Z,100559.75
2022-12-01T23:41:32.123Z,100561.50
2022-12-01T23:44:38.626Z,100553.50
2022-12-01T23:47:20.224Z,100567.59
2022-12-01T23:49:48.295Z,100561.25
2022-12-01T23:52:20.362Z,100564.06
2022-12-01T23:54:48.582Z,100563.22
2022-12-01T23:57:21.186Z,100564.91
2022-12-01T23:59:50.148Z,100566.59
